createdAt,value
2023-04-16T00:00:37.345Z,8.10
2023-04-16T00:03:08.412Z,8.10
2023-04-16T00:05:39.576Z,8.10
2023-04-16T00:08:10.557Z,8.20
2023-04-16T00:10:41.491Z,8.10
2023-04-16T00:13:12.351Z,8.10
2023-04-16T00:15:43.263Z,8.10
2023-04-16T00:18:14.245Z,8.10
2023-04-16T00:20:45.278Z,8.20
2023-04-16T00:23:16.953Z,8.20
2023-04-16T00:25:47.934Z,8.20
2023-04-16T00:28:18.772Z,8.20
2023-04-16T00:30:49.661Z,8.10
2023-04-16T00:33:20.779Z,8.10
2023-04-16T00:35:51.678Z,8.20
2023-04-16T00:38:22.662Z,8.20
2023-04-16T00:40:53.553Z,8.10
2023-04-16T00:43:26.072Z,8.10
2023-04-16T00:45:57.569Z,8.10
2023-04-16T00:48:28.899Z,8.10
2023-04-16T00:51:01.730Z,8.10
2023-04-16T00:53:33.103Z,8.10
2023-04-16T00:56:06.058Z,8.10
2023-04-16T00:58:37.070Z,8.10
2023-04-16T01:01:08.252Z,8.20
2023-04-16T01:03:48.778Z,8.10
2023-04-16T01:06:19.786Z,8.10
2023-04-16T01:08:50.772Z,8.10
2023-04-16T01:11:21.681Z,8.10
2023-04-16T01:13:52.690Z,8.00
2023-04-16T01:16:23.790Z,8.10
2023-04-16T01:18:54.830Z,8.10
2023-04-16T01:21:26.559Z,8.10
2023-04-16T01:23:57.485Z,8.10
2023-04-16T01:26:28.352Z,8.10
2023-04-16T01:29:00.501Z,8.10
2023-04-16T01:31:31.515Z,8.10
2023-04-16T01:34:02.470Z,8.20
2023-04-16T01:36:33.392Z,8.10
2023-04-16T01:39:04.531Z,8.10
2023-04-16T01:41:36.211Z,8.10
2023-04-16T01:44:07.172Z,8.10
2023-04-16T01:46:38.795Z,8.10
2023-04-16T01:49:09.869Z,8.10
2023-04-16T01:51:41.116Z,8.10
2023-04-16T01:54:12.525Z,8.10
2023-04-16T01:56:43.406Z,8.10
2023-04-16T01:59:14.289Z,8.00
2023-04-16T02:01:45.230Z,8.00
2023-04-16T02:04:16.438Z,8.10
2023-04-16T02:06:47.423Z,8.10
2023-04-16T02:09:18.699Z,8.10
2023-04-16T02:11:49.611Z,8.10
2023-04-16T02:14:22.028Z,8.20
2023-04-16T02:16:52.963Z,8.10
2023-04-16T02:19:24.166Z,8.10
2023-04-16T02:21:55.403Z,8.20
2023-04-16T02:24:26.321Z,8.10
2023-04-16T02:26:57.235Z,8.10
2023-04-16T02:29:28.551Z,8.10
2023-04-16T02:31:59.783Z,8.10
2023-04-16T02:34:31.207Z,8.00
2023-04-16T02:37:02.067Z,8.00
2023-04-16T02:39:32.989Z,8.00
2023-04-16T02:42:03.912Z,8.10
2023-04-16T02:44:34.775Z,8.00
2023-04-16T02:47:05.773Z,8.00
2023-04-16T02:49:36.666Z,8.10
2023-04-16T02:52:07.509Z,8.10
2023-04-16T02:54:38.394Z,8.20
2023-04-16T02:57:09.812Z,8.10
2023-04-16T02:59:40.732Z,8.10
2023-04-16T03:02:12.157Z,8.10
2023-04-16T03:04:43.704Z,8.00
2023-04-16T03:07:15.092Z,8.00
2023-04-16T03:09:46.315Z,8.00
2023-04-16T03:12:17.179Z,8.10
2023-04-16T03:14:48.051Z,8.10
2023-04-16T03:17:19.060Z,8.00
2023-04-16T03:19:50.942Z,8.00
2023-04-16T03:22:21.826Z,8.10
2023-04-16T03:24:52.709Z,8.00
2023-04-16T03:27:23.685Z,8.00
2023-04-16T03:29:54.685Z,7.90
2023-04-16T03:32:25.634Z,7.90
2023-04-16T03:34:56.533Z,8.00
2023-04-16T03:37:27.408Z,8.00
2023-04-16T03:39:58.381Z,8.00
2023-04-16T03:42:29.249Z,8.00
2023-04-16T03:45:00.816Z,8.00
2023-04-16T03:47:31.790Z,8.00
2023-04-16T03:50:03.008Z,8.00
2023-04-16T03:52:33.884Z,8.00
2023-04-16T03:55:05.422Z,7.90
2023-04-16T03:57:36.384Z,8.00
2023-04-16T04:00:08.132Z,7.90
2023-04-16T04:02:39.168Z,7.90
2023-04-16T04:05:10.441Z,7.90
2023-04-16T04:07:41.291Z,8.00
2023-04-16T04:10:12.308Z,8.00
2023-04-16T04:12:43.814Z,7.90
2023-04-16T04:15:14.877Z,8.00
2023-04-16T04:17:46.115Z,8.00
2023-04-16T04:20:17.166Z,8.00
2023-04-16T04:22:48.133Z,7.90
2023-04-16T04:25:19.165Z,7.90
2023-04-16T04:27:50.054Z,7.90
2023-04-16T04:30:20.988Z,7.90
2023-04-16T04:32:51.855Z,7.90
2023-04-16T04:35:22.862Z,8.00
2023-04-16T04:37:53.721Z,7.90
2023-04-16T04:40:24.662Z,7.90
2023-04-16T04:42:55.517Z,8.00
2023-04-16T04:45:27.059Z,8.00
2023-04-16T04:47:58.501Z,8.00
2023-04-16T04:50:29.569Z,8.00
2023-04-16T04:53:00.485Z,8.00
2023-04-16T04:55:31.352Z,8.00
2023-04-16T04:58:06.260Z,8.10
2023-04-16T05:00:37.210Z,8.00
2023-04-16T05:03:12.584Z,8.00
2023-04-16T05:05:43.604Z,7.90
2023-04-16T05:08:14.468Z,8.00
2023-04-16T05:10:45.359Z,8.10
2023-04-16T05:13:16.353Z,8.00
2023-04-16T05:15:47.318Z,8.00
2023-04-16T05:18:18.146Z,8.00
2023-04-16T05:20:49.117Z,7.90
2023-04-16T05:23:19.940Z,7.90
2023-04-16T05:25:50.829Z,8.00
2023-04-16T05:28:21.726Z,7.90
2023-04-16T05:30:52.663Z,7.80
2023-04-16T05:33:23.588Z,7.90
2023-04-16T05:35:54.616Z,8.00
2023-04-16T05:38:25.520Z,8.00
2023-04-16T05:40:56.634Z,7.90
2023-04-16T05:43:27.528Z,7.90
2023-04-16T05:45:58.537Z,7.90
2023-04-16T05:48:29.496Z,7.90
2023-04-16T05:51:02.262Z,7.90
2023-04-16T05:53:33.166Z,7.90
2023-04-16T05:56:04.181Z,7.90
2023-04-16T05:58:35.249Z,8.00
2023-04-16T06:01:07.478Z,8.00
2023-04-16T06:03:38.451Z,8.00
2023-04-16T06:06:09.438Z,7.90
2023-04-16T06:08:40.338Z,7.90
2023-04-16T06:11:11.469Z,7.90
2023-04-16T06:13:42.969Z,7.90
2023-04-16T06:16:13.929Z,7.80
2023-04-16T06:18:44.844Z,7.90
2023-04-16T06:21:16.211Z,7.90
2023-04-16T06:23:47.228Z,7.90
2023-04-16T06:26:18.327Z,7.90
2023-04-16T06:28:49.944Z,8.00
2023-04-16T06:31:21.140Z,7.90
2023-04-16T06:33:52.026Z,7.90
2023-04-16T06:36:22.896Z,7.90
2023-04-16T06:38:53.801Z,7.90
2023-04-16T06:41:26.669Z,7.90
2023-04-16T06:43:57.551Z,8.00
2023-04-16T06:46:28.618Z,8.10
2023-04-16T06:48:59.519Z,8.10
2023-04-16T06:51:30.730Z,8.00
2023-04-16T06:54:02.328Z,8.00
2023-04-16T06:56:33.518Z,8.00
2023-04-16T06:59:04.926Z,8.10
2023-04-16T07:01:36.457Z,8.10
2023-04-16T07:04:07.569Z,8.10
2023-04-16T07:06:38.574Z,8.10
2023-04-16T07:09:09.700Z,8.10
2023-04-16T07:11:41.203Z,8.10
2023-04-16T07:14:12.208Z,8.10
2023-04-16T07:16:43.129Z,8.10
2023-04-16T07:19:14.148Z,8.10
2023-04-16T07:21:45.205Z,8.20
2023-04-16T07:24:17.245Z,8.20
2023-04-16T07:26:48.092Z,8.20
2023-04-16T07:29:19.149Z,8.20
2023-04-16T07:31:50.053Z,8.30
2023-04-16T07:34:21.063Z,8.30
2023-04-16T07:36:52.088Z,8.30
2023-04-16T07:39:22.981Z,8.30
2023-04-16T07:41:53.896Z,8.30
2023-04-16T07:44:24.860Z,8.30
2023-04-16T07:46:55.929Z,8.30
2023-04-16T07:49:26.915Z,8.40
2023-04-16T07:51:57.877Z,8.40
2023-04-16T07:54:29.173Z,8.30
2023-04-16T07:57:00.265Z,8.30
2023-04-16T07:59:31.268Z,8.30
2023-04-16T08:02:02.202Z,8.30
2023-04-16T08:04:33.992Z,8.30
2023-04-16T08:07:05.252Z,8.40
2023-04-16T08:09:36.512Z,8.40
2023-04-16T08:12:07.426Z,8.40
2023-04-16T08:14:38.371Z,8.50
2023-04-16T08:17:09.710Z,8.50
2023-04-16T08:19:40.798Z,8.40
2023-04-16T08:22:15.418Z,8.40
2023-04-16T08:24:46.455Z,8.40
2023-04-16T08:27:19.070Z,8.50
2023-04-16T08:29:51.081Z,8.50
2023-04-16T08:32:22.040Z,8.50
2023-04-16T08:34:53.140Z,8.40
2023-04-16T08:37:24.023Z,8.50
2023-04-16T08:39:55.017Z,8.60
2023-04-16T08:42:40.697Z,8.50
2023-04-16T08:45:17.927Z,8.50
2023-04-16T08:47:52.989Z,8.50
2023-04-16T08:50:26.763Z,8.40
2023-04-16T08:53:08.693Z,8.50
2023-04-16T08:55:46.122Z,8.50
2023-04-16T08:58:22.523Z,8.50
2023-04-16T09:00:54.606Z,8.50
2023-04-16T09:03:25.872Z,8.40
2023-04-16T09:05:59.224Z,8.50
2023-04-16T09:08:30.489Z,8.50
2023-04-16T09:11:01.634Z,8.40
2023-04-16T09:13:33.060Z,8.50
2023-04-16T09:16:04.650Z,8.50
2023-04-16T09:18:35.978Z,8.60
2023-04-16T09:21:10.006Z,8.60
2023-04-16T09:23:42.025Z,8.60
2023-04-16T09:26:12.919Z,8.60
2023-04-16T09:28:48.898Z,8.60
2023-04-16T09:31:20.224Z,8.60
2023-04-16T09:34:09.185Z,8.70
2023-04-16T09:36:40.326Z,8.70
2023-04-16T09:39:22.777Z,8.70
2023-04-16T09:41:55.162Z,8.70
2023-04-16T09:44:36.974Z,8.70
2023-04-16T09:47:09.873Z,8.70
2023-04-16T09:49:44.462Z,8.80
2023-04-16T09:52:22.711Z,8.70
2023-04-16T09:54:54.810Z,8.70
2023-04-16T09:57:26.286Z,8.70
2023-04-16T10:00:07.816Z,8.60
2023-04-16T10:02:42.631Z,8.70
2023-04-16T10:05:18.709Z,8.70
2023-04-16T10:07:49.840Z,8.70
2023-04-16T10:10:21.077Z,8.70
2023-04-16T10:12:52.588Z,8.70
2023-04-16T10:15:23.679Z,8.70
2023-04-16T10:17:55.637Z,8.70
2023-04-16T10:20:27.051Z,8.70
2023-04-16T10:22:58.961Z,8.70
2023-04-16T10:25:31.310Z,8.60
2023-04-16T10:28:03.159Z,8.70
2023-04-16T10:30:34.398Z,8.70
2023-04-16T10:33:05.825Z,8.70
2023-04-16T10:35:40.948Z,8.80
2023-04-16T10:38:28.403Z,8.80
2023-04-16T10:41:06.752Z,8.80
2023-04-16T10:43:46.549Z,8.80
2023-04-16T10:46:26.882Z,8.80
2023-04-16T10:49:03.970Z,8.70
2023-04-16T10:51:36.456Z,8.70
2023-04-16T10:54:12.641Z,8.70
2023-04-16T10:56:46.359Z,8.70
2023-04-16T10:59:25.114Z,8.70
2023-04-16T11:01:59.674Z,8.70
2023-04-16T11:04:38.133Z,8.70
2023-04-16T11:07:14.926Z,8.80
2023-04-16T11:09:57.557Z,8.80
2023-04-16T11:12:44.921Z,8.80
2023-04-16T11:15:19.248Z,8.70
2023-04-16T11:17:52.142Z,8.70
2023-04-16T11:20:29.004Z,8.80
2023-04-16T11:22:59.946Z,8.80
2023-04-16T11:25:34.330Z,8.80
2023-04-16T11:28:05.365Z,8.90
2023-04-16T11:30:38.637Z,8.80
2023-04-16T11:33:11.869Z,8.70
2023-04-16T11:35:43.466Z,8.80
2023-04-16T11:38:14.393Z,8.70
2023-04-16T11:40:45.454Z,8.80
2023-04-16T11:43:17.468Z,8.70
2023-04-16T11:46:13.386Z,8.80
2023-04-16T11:48:56.290Z,8.80
2023-04-16T11:51:27.472Z,8.80
2023-04-16T11:53:58.808Z,8.70
2023-04-16T11:56:36.244Z,8.70
2023-04-16T11:59:13.748Z,8.70
2023-04-16T12:01:53.458Z,8.60
2023-04-16T12:04:27.185Z,8.70
2023-04-16T12:07:13.127Z,8.80
2023-04-16T12:09:44.566Z,8.80
2023-04-16T12:12:33.720Z,8.90
2023-04-16T12:15:05.330Z,8.90
2023-04-16T12:17:39.883Z,8.90
2023-04-16T12:20:12.629Z,8.80
2023-04-16T12:22:49.721Z,8.80
2023-04-16T12:25:20.981Z,8.80
2023-04-16T12:27:56.049Z,8.90
2023-04-16T12:30:27.487Z,8.70
2023-04-16T12:33:18.950Z,8.80
2023-04-16T12:35:50.674Z,8.80
2023-04-16T12:38:24.054Z,8.80
2023-04-16T12:40:57.270Z,8.80
2023-04-16T12:43:28.533Z,8.90
2023-04-16T12:45:59.495Z,8.90
2023-04-16T12:48:32.367Z,8.90
2023-04-16T12:51:03.493Z,8.90
2023-04-16T12:53:35.089Z,8.90
2023-04-16T12:56:06.968Z,8.90
2023-04-16T12:58:37.808Z,8.90
2023-04-16T13:01:09.630Z,8.90
2023-04-16T13:03:41.259Z,9.00
2023-04-16T13:06:14.078Z,9.00
2023-04-16T13:08:45.959Z,9.00
2023-04-16T13:11:17.103Z,9.00
2023-04-16T13:13:48.293Z,8.90
2023-04-16T13:16:19.579Z,8.90
2023-04-16T13:18:50.566Z,8.90
2023-04-16T13:21:21.535Z,9.00
2023-04-16T13:23:52.445Z,8.90
2023-04-16T13:26:23.310Z,8.90
2023-04-16T13:28:54.630Z,8.90
2023-04-16T13:31:26.687Z,8.90
2023-04-16T13:33:57.622Z,8.90
2023-04-16T13:36:30.054Z,8.90
2023-04-16T13:39:01.131Z,9.00
2023-04-16T13:41:32.025Z,9.00
2023-04-16T13:44:03.012Z,8.90
2023-04-16T13:46:34.248Z,8.90
2023-04-16T13:49:05.586Z,9.00
2023-04-16T13:51:37.333Z,9.10
2023-04-16T13:54:08.540Z,9.10
2023-04-16T13:56:39.723Z,9.10
2023-04-16T13:59:10.828Z,9.20
2023-04-16T14:01:41.990Z,9.10
2023-04-16T14:04:15.374Z,9.00
2023-04-16T14:06:46.351Z,9.10
2023-04-16T14:09:17.421Z,9.20
2023-04-16T14:11:48.299Z,9.20
2023-04-16T14:14:19.428Z,9.20
2023-04-16T14:16:53.289Z,9.20
2023-04-16T14:19:24.250Z,9.30
2023-04-16T14:21:55.170Z,9.50
2023-04-16T14:24:26.109Z,9.50
2023-04-16T14:26:57.097Z,9.40
2023-04-16T14:29:28.372Z,9.40
2023-04-16T14:31:59.334Z,9.30
2023-04-16T14:34:30.334Z,9.30
2023-04-16T14:37:01.307Z,9.30
2023-04-16T14:39:32.604Z,9.30
2023-04-16T14:42:03.589Z,9.40
2023-04-16T14:44:34.543Z,9.40
2023-04-16T14:47:06.713Z,9.50
2023-04-16T14:49:37.652Z,9.60
2023-04-16T14:52:08.678Z,9.50
2023-04-16T14:54:39.597Z,9.50
2023-04-16T14:57:10.571Z,9.60
2023-04-16T14:59:41.670Z,9.60
2023-04-16T15:02:12.769Z,9.40
2023-04-16T15:04:43.746Z,9.40
2023-04-16T15:07:14.740Z,9.40
2023-04-16T15:09:45.666Z,9.50
2023-04-16T15:12:17.990Z,9.60
2023-04-16T15:14:50.019Z,9.40
2023-04-16T15:17:21.537Z,9.40
2023-04-16T15:19:53.651Z,9.40
2023-04-16T15:22:24.597Z,9.50
2023-04-16T15:24:55.588Z,9.50
2023-04-16T15:27:26.948Z,9.40
2023-04-16T15:29:57.910Z,9.50
2023-04-16T15:32:28.967Z,9.60
2023-04-16T15:35:00.112Z,9.50
2023-04-16T15:37:31.741Z,9.50
2023-04-16T15:40:04.686Z,9.50
2023-04-16T15:42:35.656Z,9.50
2023-04-16T15:45:07.112Z,9.40
2023-04-16T15:47:40.202Z,9.50
2023-04-16T15:50:12.692Z,9.50
2023-04-16T15:52:43.666Z,9.40
2023-04-16T15:55:17.311Z,9.30
2023-04-16T15:57:48.178Z,9.30
2023-04-16T16:00:21.370Z,9.40
2023-04-16T16:02:52.576Z,9.30
2023-04-16T16:05:23.837Z,9.30
2023-04-16T16:07:54.749Z,9.40
2023-04-16T16:10:26.205Z,9.40
2023-04-16T16:12:57.671Z,9.50
2023-04-16T16:15:29.361Z,9.50
2023-04-16T16:18:00.329Z,9.40
2023-04-16T16:20:31.985Z,9.40
2023-04-16T16:23:03.484Z,9.40
2023-04-16T16:25:34.463Z,9.50
2023-04-16T16:28:06.718Z,9.60
2023-04-16T16:30:37.801Z,9.40
2023-04-16T16:33:09.420Z,9.50
2023-04-16T16:35:40.352Z,9.60
2023-04-16T16:38:11.314Z,9.50
2023-04-16T16:40:42.271Z,9.60
2023-04-16T16:43:14.022Z,9.70
2023-04-16T16:45:45.130Z,9.70
2023-04-16T16:48:16.030Z,9.60
2023-04-16T16:50:47.291Z,9.60
2023-04-16T16:53:18.261Z,9.60
2023-04-16T16:55:49.385Z,9.70
2023-04-16T16:58:20.821Z,9.80
2023-04-16T17:00:51.830Z,9.90
2023-04-16T17:03:22.901Z,9.80
2023-04-16T17:05:53.856Z,9.80
2023-04-16T17:08:24.722Z,9.90
2023-04-16T17:10:55.590Z,9.80
2023-04-16T17:13:26.671Z,9.80
2023-04-16T17:15:57.523Z,9.80
2023-04-16T17:18:28.618Z,9.80
2023-04-16T17:20:59.484Z,9.80
2023-04-16T17:23:30.489Z,9.70
2023-04-16T17:26:01.579Z,9.60
2023-04-16T17:28:32.603Z,9.60
2023-04-16T17:31:03.775Z,9.60
2023-04-16T17:33:35.084Z,9.60
2023-04-16T17:36:07.396Z,9.60
2023-04-16T17:38:43.630Z,9.60
2023-04-16T17:41:15.802Z,9.60
2023-04-16T17:43:53.466Z,9.60
2023-04-16T17:46:24.351Z,9.70
2023-04-16T17:48:55.388Z,9.70
2023-04-16T17:51:27.366Z,9.80
2023-04-16T17:53:58.353Z,9.80
2023-04-16T17:56:29.207Z,9.60
2023-04-16T17:59:00.171Z,9.60
2023-04-16T18:01:31.153Z,9.60
2023-04-16T18:04:02.311Z,9.60
2023-04-16T18:06:33.482Z,9.70
2023-04-16T18:09:05.891Z,9.70
2023-04-16T18:11:37.132Z,9.70
2023-04-16T18:14:10.003Z,9.70
2023-04-16T18:16:41.847Z,9.70
2023-04-16T18:19:13.172Z,9.70
2023-04-16T18:21:45.002Z,9.90
2023-04-16T18:24:18.940Z,9.90
2023-04-16T18:26:51.156Z,9.80
2023-04-16T18:29:25.047Z,9.70
2023-04-16T18:31:59.301Z,9.70
2023-04-16T18:34:30.748Z,9.80
2023-04-16T18:37:02.005Z,9.80
2023-04-16T18:39:34.013Z,9.70
2023-04-16T18:42:05.231Z,9.70
2023-04-16T18:44:36.244Z,9.70
2023-04-16T18:47:07.133Z,9.70
2023-04-16T18:49:38.141Z,9.70
2023-04-16T18:52:09.144Z,9.70
2023-04-16T18:54:40.971Z,9.80
2023-04-16T18:57:11.856Z,9.70
2023-04-16T18:59:42.760Z,9.80
2023-04-16T19:02:13.703Z,10.10
2023-04-16T19:04:44.614Z,9.90
2023-04-16T19:07:15.763Z,9.60
2023-04-16T19:09:46.711Z,9.70
2023-04-16T19:12:17.583Z,9.80
2023-04-16T19:14:48.723Z,9.80
2023-04-16T19:17:20.079Z,9.70
2023-04-16T19:19:50.988Z,9.60
2023-04-16T19:22:22.101Z,9.70
2023-04-16T19:24:54.677Z,9.60
2023-04-16T19:27:29.063Z,9.70
2023-04-16T19:30:00.504Z,9.70
2023-04-16T19:32:31.945Z,9.70
2023-04-16T19:35:04.496Z,9.70
2023-04-16T19:37:35.432Z,9.70
2023-04-16T19:40:07.375Z,9.70
2023-04-16T19:42:38.442Z,9.70
2023-04-16T19:45:09.579Z,9.60
2023-04-16T19:47:40.685Z,9.60
2023-04-16T19:50:11.887Z,9.60
2023-04-16T19:52:42.868Z,9.70
2023-04-16T19:55:14.165Z,9.70
2023-04-16T19:57:45.074Z,9.60
2023-04-16T20:00:17.207Z,9.60
2023-04-16T20:02:48.302Z,9.70
2023-04-16T20:05:19.378Z,9.70
2023-04-16T20:07:52.559Z,9.60
2023-04-16T20:10:24.354Z,9.70
2023-04-16T20:12:55.398Z,9.80
2023-04-16T20:15:26.453Z,9.80
2023-04-16T20:17:57.474Z,10.30
2023-04-16T20:20:28.381Z,10.40
2023-04-16T20:22:59.726Z,10.30
2023-04-16T20:25:30.849Z,10.10
2023-04-16T20:28:01.812Z,10.00
2023-04-16T20:30:38.654Z,9.90
2023-04-16T20:33:09.897Z,9.90
2023-04-16T20:35:40.943Z,9.90
2023-04-16T20:38:11.806Z,9.90
2023-04-16T20:40:44.712Z,9.90
2023-04-16T20:43:18.732Z,9.90
2023-04-16T20:45:52.705Z,10.00
2023-04-16T20:48:23.807Z,10.00
2023-04-16T20:51:02.917Z,9.90
2023-04-16T20:53:34.110Z,9.90
2023-04-16T20:56:05.400Z,9.80
2023-04-16T20:58:36.317Z,9.80
2023-04-16T21:01:07.405Z,9.80
2023-04-16T21:03:38.657Z,9.80
2023-04-16T21:06:09.682Z,9.70
2023-04-16T21:08:40.593Z,9.70
2023-04-16T21:11:12.353Z,9.70
2023-04-16T21:13:43.235Z,9.70
2023-04-16T21:16:14.221Z,9.60
2023-04-16T21:18:45.177Z,9.70
2023-04-16T21:21:16.042Z,9.70
2023-04-16T21:23:47.393Z,9.60
2023-04-16T21:26:18.229Z,9.60
2023-04-16T21:28:49.129Z,9.60
2023-04-16T21:31:20.133Z,9.50
2023-04-16T21:33:51.112Z,9.60
2023-04-16T21:36:22.356Z,9.60
2023-04-16T21:38:53.235Z,9.50
2023-04-16T21:41:24.083Z,9.50
2023-04-16T21:43:55.057Z,9.60
2023-04-16T21:46:26.741Z,9.60
2023-04-16T21:48:57.650Z,9.60
2023-04-16T21:51:31.153Z,9.60
2023-04-16T21:54:02.055Z,9.60
2023-04-16T21:56:32.924Z,9.50
2023-04-16T21:59:03.922Z,9.60
2023-04-16T22:01:34.987Z,9.60
2023-04-16T22:04:07.511Z,9.70
2023-04-16T22:06:38.374Z,9.60
2023-04-16T22:09:09.616Z,9.70
2023-04-16T22:11:40.793Z,9.70
2023-04-16T22:14:11.747Z,9.60
2023-04-16T22:16:44.911Z,9.60
2023-04-16T22:19:17.739Z,9.60
2023-04-16T22:21:49.152Z,9.60
2023-04-16T22:24:20.762Z,9.60
2023-04-16T22:26:51.633Z,9.60
2023-04-16T22:29:22.816Z,9.60
2023-04-16T22:31:53.738Z,9.60
2023-04-16T22:34:24.694Z,9.60
2023-04-16T22:36:56.315Z,9.60
2023-04-16T22:39:28.618Z,9.60
2023-04-16T22:41:59.892Z,9.60
2023-04-16T22:44:30.761Z,9.60
2023-04-16T22:47:01.639Z,9.70
2023-04-16T22:49:33.181Z,9.60
2023-04-16T22:52:04.184Z,9.60
2023-04-16T22:54:35.078Z,9.60
2023-04-16T22:57:06.179Z,9.70
2023-04-16T22:59:37.101Z,9.60
2023-04-16T23:02:08.110Z,9.70
2023-04-16T23:04:39.095Z,9.60
2023-04-16T23:07:09.942Z,9.60
2023-04-16T23:09:41.232Z,9.60
2023-04-16T23:12:12.144Z,9.70
2023-04-16T23:14:46.016Z,9.60
2023-04-16T23:17:17.126Z,9.60
2023-04-16T23:19:48.027Z,9.60
2023-04-16T23:22:18.860Z,9.60
2023-04-16T23:24:49.754Z,9.60
2023-04-16T23:27:20.631Z,9.60
2023-04-16T23:29:51.613Z,9.70
2023-04-16T23:32:22.502Z,9.60
2023-04-16T23:34:53.585Z,9.60
2023-04-16T23:37:24.508Z,9.60
2023-04-16T23:39:55.578Z,9.50
2023-04-16T23:42:26.447Z,9.60
2023-04-16T23:44:57.450Z,9.60
2023-04-16T23:47:28.291Z,9.50
2023-04-16T23:50:00.213Z,9.50
2023-04-16T23:52:31.087Z,9.50
2023-04-16T23:55:02.049Z,9.40
2023-04-16T23:57:32.922Z,9.40
